Terminal Aerodrome Forecast
Issued by NWS New Orleans/Baton Rouge, LA

Home | Current Version | Previous Version | Text Only | Print | Product List | Glossary On
Versions: 1 2 3 4 5 6 7 8 9 10 11 12 13 14 15 16 17 18 19 20 21 22 23 24 25 26 27 28 29 30 31 32
000
FTUS44 KLIX 041340 RRA
TAFNEW
TAF
KNEW 041340Z 0414/0512 07006KT 4SM BR OVC009
     FM041600 25006KT 4SM SHRA OVC025
      TEMPO 0417/0420 2SM SHRA OVC015
     FM042000 29006KT P6SM OVC035
      TEMPO 0420/0421 2SM SHRA OVC025
     FM042100 31007KT 3SM SHRA OVC015
     FM042300 34009KT 5SM SHRA OVC015=

USA.gov is the U.S. government's official web portal to all federal, state and local government web resources and services.